sensor_id;sensor_type;location;lat;lon;timestamp;pressure;altitude;pressure_sealevel;temperature;humidity
72262;BME280;60173;52.112;8.648;2023-06-24T00:00:21;101455.53;;;13.79;97.70
72262;BME280;60173;52.112;8.648;2023-06-24T00:02:47;101454.31;;;13.71;98.92
72262;BME280;60173;52.112;8.648;2023-06-24T00:05:13;101454.59;;;13.70;99.39
72262;BME280;60173;52.112;8.648;2023-06-24T00:07:40;101456.72;;;13.73;99.37
72262;BME280;60173;52.112;8.648;2023-06-24T00:10:07;101456.63;;;13.59;99.31
72262;BME280;60173;52.112;8.648;2023-06-24T00:12:33;101455.16;;;13.48;99.80
72262;BME280;60173;52.112;8.648;2023-06-24T00:15:00;101455.47;;;13.46;100.00
72262;BME280;60173;52.112;8.648;2023-06-24T00:17:26;101452.84;;;13.36;100.00
72262;BME280;60173;52.112;8.648;2023-06-24T00:19:52;101451.88;;;13.27;100.00
72262;BME280;60173;52.112;8.648;2023-06-24T00:22:19;101441.34;;;13.39;100.00
72262;BME280;60173;52.112;8.648;2023-06-24T00:24:45;101449.09;;;13.32;100.00
72262;BME280;60173;52.112;8.648;2023-06-24T00:27:11;101440.75;;;13.18;100.00
72262;BME280;60173;52.112;8.648;2023-06-24T00:29:38;101446.44;;;13.22;100.00
72262;BME280;60173;52.112;8.648;2023-06-24T00:32:05;101444.38;;;13.14;100.00
72262;BME280;60173;52.112;8.648;2023-06-24T00:34:31;101450.69;;;13.09;100.00
72262;BME280;60173;52.112;8.648;2023-06-24T00:36:58;101450.16;;;13.07;100.00
72262;BME280;60173;52.112;8.648;2023-06-24T00:39:24;101446.59;;;13.11;100.00
72262;BME280;60173;52.112;8.648;2023-06-24T00:41:50;101445.94;;;13.20;100.00
72262;BME280;60173;52.112;8.648;2023-06-24T00:44:17;101444.88;;;13.16;100.00
72262;BME280;60173;52.112;8.648;2023-06-24T00:46:43;101446.09;;;13.04;100.00
72262;BME280;60173;52.112;8.648;2023-06-24T00:49:10;101454.88;;;13.01;100.00
72262;BME280;60173;52.112;8.648;2023-06-24T00:51:36;101456.84;;;12.96;100.00
72262;BME280;60173;52.112;8.648;2023-06-24T00:54:03;101457.38;;;12.98;100.00
72262;BME280;60173;52.112;8.648;2023-06-24T00:56:34;101453.84;;;12.97;100.00
72262;BME280;60173;52.112;8.648;2023-06-24T00:59:04;101450.06;;;12.93;100.00
72262;BME280;60173;52.112;8.648;2023-06-24T01:01:33;101462.59;;;12.94;100.00
72262;BME280;60173;52.112;8.648;2023-06-24T01:04:00;101454.94;;;12.96;100.00
72262;BME280;60173;52.112;8.648;2023-06-24T01:06:28;101458.72;;;13.00;100.00
72262;BME280;60173;52.112;8.648;2023-06-24T01:08:56;101465.28;;;12.99;100.00
72262;BME280;60173;52.112;8.648;2023-06-24T01:11:23;101450.31;;;12.97;100.00
72262;BME280;60173;52.112;8.648;2023-06-24T01:13:50;101459.34;;;12.92;100.00
72262;BME280;60173;52.112;8.648;2023-06-24T01:16:26;101452.09;;;12.82;100.00
72262;BME280;60173;52.112;8.648;2023-06-24T01:18:58;101455.56;;;12.88;100.00
72262;BME280;60173;52.112;8.648;2023-06-24T01:24:17;101452.38;;;12.81;100.00
72262;BME280;60173;52.112;8.648;2023-06-24T01:29:54;101443.56;;;12.89;100.00
72262;BME280;60173;52.112;8.648;2023-06-24T01:32:34;101447.06;;;12.65;100.00
72262;BME280;60173;52.112;8.648;2023-06-24T01:35:11;101447.03;;;12.71;100.00
72262;BME280;60173;52.112;8.648;2023-06-24T01:37:44;101444.81;;;12.73;100.00
72262;BME280;60173;52.112;8.648;2023-06-24T01:40:20;101441.59;;;12.71;100.00
72262;BME280;60173;52.112;8.648;2023-06-24T01:42:49;101453.56;;;12.70;100.00
72262;BME280;60173;52.112;8.648;2023-06-24T01:45:26;101463.38;;;12.71;100.00
72262;BME280;60173;52.112;8.648;2023-06-24T01:48:06;101461.44;;;12.76;100.00
72262;BME280;60173;52.112;8.648;2023-06-24T01:50:35;101463.34;;;12.76;100.00
72262;BME280;60173;52.112;8.648;2023-06-24T01:53:07;101462.28;;;12.72;100.00
72262;BME280;60173;52.112;8.648;2023-06-24T01:55:35;101465.22;;;12.75;100.00
72262;BME280;60173;52.112;8.648;2023-06-24T01:58:05;101469.34;;;12.73;100.00
72262;BME280;60173;52.112;8.648;2023-06-24T02:00:34;101468.59;;;12.67;100.00
72262;BME280;60173;52.112;8.648;2023-06-24T02:03:03;101463.69;;;12.64;100.00
72262;BME280;60173;52.112;8.648;2023-06-24T02:05:31;101460.25;;;12.58;100.00
72262;BME280;60173;52.112;8.648;2023-06-24T02:07:59;101454.78;;;12.58;100.00
72262;BME280;60173;52.112;8.648;2023-06-24T02:10:27;101446.09;;;12.56;100.00
72262;BME280;60173;52.112;8.648;2023-06-24T02:12:54;101460.25;;;12.58;100.00
72262;BME280;60173;52.112;8.648;2023-06-24T02:15:22;101464.28;;;12.61;100.00
72262;BME280;60173;52.112;8.648;2023-06-24T02:17:50;101454.16;;;12.66;100.00
72262;BME280;60173;52.112;8.648;2023-06-24T02:20:17;101455.78;;;12.68;100.00
72262;BME280;60173;52.112;8.648;2023-06-24T02:22:45;101454.97;;;12.67;100.00
72262;BME280;60173;52.112;8.648;2023-06-24T02:25:11;101456.63;;;12.63;100.00
72262;BME280;60173;52.112;8.648;2023-06-24T02:27:38;101455.03;;;12.62;100.00
72262;BME280;60173;52.112;8.648;2023-06-24T02:30:07;101458.59;;;12.57;100.00
72262;BME280;60173;52.112;8.648;2023-06-24T02:32:34;101455.88;;;12.57;100.00
72262;BME280;60173;52.112;8.648;2023-06-24T02:35:00;101460.25;;;12.58;100.00
72262;BME280;60173;52.112;8.648;2023-06-24T02:37:27;101462.09;;;12.63;100.00
72262;BME280;60173;52.112;8.648;2023-06-24T02:39:53;101465.03;;;12.66;100.00
72262;BME280;60173;52.112;8.648;2023-06-24T02:42:19;101473.75;;;12.69;100.00
72262;BME280;60173;52.112;8.648;2023-06-24T02:44:46;101470.47;;;12.72;100.00
72262;BME280;60173;52.112;8.648;2023-06-24T02:47:14;101472.66;;;12.70;100.00
72262;BME280;60173;52.112;8.648;2023-06-24T02:49:42;101478.09;;;12.70;100.00
72262;BME280;60173;52.112;8.648;2023-06-24T02:52:10;101465.94;;;12.62;100.00
72262;BME280;60173;52.112;8.648;2023-06-24T02:54:37;101462.19;;;12.82;100.00
72262;BME280;60173;52.112;8.648;2023-06-24T02:57:04;101461.06;;;12.83;100.00
72262;BME280;60173;52.112;8.648;2023-06-24T02:59:30;101456.25;;;12.75;100.00
72262;BME280;60173;52.112;8.648;2023-06-24T03:01:57;101472.91;;;12.73;100.00
72262;BME280;60173;52.112;8.648;2023-06-24T03:04:24;101475.69;;;12.68;100.00
72262;BME280;60173;52.112;8.648;2023-06-24T03:06:51;101482.28;;;12.62;100.00
72262;BME280;60173;52.112;8.648;2023-06-24T03:09:18;101486.91;;;12.61;100.00
72262;BME280;60173;52.112;8.648;2023-06-24T03:11:45;101489.91;;;12.60;100.00
72262;BME280;60173;52.112;8.648;2023-06-24T03:14:13;101488.31;;;12.59;100.00
72262;BME280;60173;52.112;8.648;2023-06-24T03:16:40;101490.50;;;12.57;100.00
72262;BME280;60173;52.112;8.648;2023-06-24T03:19:06;101493.00;;;12.48;100.00
72262;BME280;60173;52.112;8.648;2023-06-24T03:21:33;101491.91;;;12.49;100.00
72262;BME280;60173;52.112;8.648;2023-06-24T03:23:59;101489.69;;;12.56;100.00
72262;BME280;60173;52.112;8.648;2023-06-24T03:26:33;101480.97;;;12.54;100.00
72262;BME280;60173;52.112;8.648;2023-06-24T03:29:00;101491.88;;;12.54;100.00
72262;BME280;60173;52.112;8.648;2023-06-24T03:31:26;101492.63;;;12.60;100.00
72262;BME280;60173;52.112;8.648;2023-06-24T03:33:53;101492.38;;;12.61;100.00
72262;BME280;60173;52.112;8.648;2023-06-24T03:36:19;101483.03;;;12.68;100.00
72262;BME280;60173;52.112;8.648;2023-06-24T03:38:46;101484.19;;;12.61;100.00
72262;BME280;60173;52.112;8.648;2023-06-24T03:41:12;101488.22;;;12.64;100.00
72262;BME280;60173;52.112;8.648;2023-06-24T03:43:39;101491.72;;;12.70;100.00
72262;BME280;60173;52.112;8.648;2023-06-24T03:46:05;101489.00;;;12.70;100.00
72262;BME280;60173;52.112;8.648;2023-06-24T03:48:32;101490.06;;;12.74;100.00
72262;BME280;60173;52.112;8.648;2023-06-24T03:50:58;101491.09;;;12.78;100.00
72262;BME280;60173;52.112;8.648;2023-06-24T03:53:25;101491.69;;;12.75;100.00
72262;BME280;60173;52.112;8.648;2023-06-24T03:55:51;101491.69;;;12.75;100.00
72262;BME280;60173;52.112;8.648;2023-06-24T03:58:17;101488.91;;;12.80;100.00
72262;BME280;60173;52.112;8.648;2023-06-24T04:00:44;101491.81;;;12.88;100.00
72262;BME280;60173;52.112;8.648;2023-06-24T04:03:10;101485.00;;;12.91;100.00
72262;BME280;60173;52.112;8.648;2023-06-24T04:05:37;101489.50;;;13.01;100.00
72262;BME280;60173;52.112;8.648;2023-06-24T04:08:03;101495.72;;;13.06;100.00
72262;BME280;60173;52.112;8.648;2023-06-24T04:10:30;101501.13;;;13.11;100.00
72262;BME280;60173;52.112;8.648;2023-06-24T04:12:56;101502.16;;;13.16;100.00
72262;BME280;60173;52.112;8.648;2023-06-24T04:15:23;101504.25;;;13.24;100.00
72262;BME280;60173;52.112;8.648;2023-06-24T04:17:49;101491.72;;;13.28;100.00
72262;BME280;60173;52.112;8.648;2023-06-24T04:20:15;101495.75;;;13.30;100.00
72262;BME280;60173;52.112;8.648;2023-06-24T04:22:42;101489.22;;;13.31;100.00
72262;BME280;60173;52.112;8.648;2023-06-24T04:25:08;101489.97;;;13.37;100.00
72262;BME280;60173;52.112;8.648;2023-06-24T04:27:35;101492.69;;;13.37;100.00
72262;BME280;60173;52.112;8.648;2023-06-24T04:30:03;101491.38;;;13.53;100.00
72262;BME280;60173;52.112;8.648;2023-06-24T04:32:30;101500.25;;;13.64;100.00
72262;BME280;60173;52.112;8.648;2023-06-24T04:34:58;101497.31;;;13.98;100.00
72262;BME280;60173;52.112;8.648;2023-06-24T04:37:24;101508.13;;;14.60;99.93
72262;BME280;60173;52.112;8.648;2023-06-24T04:39:51;101503.03;;;15.00;95.35
72262;BME280;60173;52.112;8.648;2023-06-24T04:42:17;101501.53;;;15.35;91.89
72262;BME280;60173;52.112;8.648;2023-06-24T04:44:43;101501.34;;;15.46;89.62
72262;BME280;60173;52.112;8.648;2023-06-24T04:47:10;101497.09;;;15.40;89.16
72262;BME280;60173;52.112;8.648;2023-06-24T04:49:36;101493.84;;;15.37;89.55
72262;BME280;60173;52.112;8.648;2023-06-24T04:52:03;101498.88;;;15.58;89.14
72262;BME280;60173;52.112;8.648;2023-06-24T04:54:29;101493.00;;;15.78;87.71
72262;BME280;60173;52.112;8.648;2023-06-24T04:56:56;101502.63;;;15.76;86.56
72262;BME280;60173;52.112;8.648;2023-06-24T04:59:22;101495.97;;;15.68;87.00
72262;BME280;60173;52.112;8.648;2023-06-24T05:01:49;101510.25;;;15.65;86.52
72262;BME280;60173;52.112;8.648;2023-06-24T05:04:15;101507.00;;;15.77;86.28
72262;BME280;60173;52.112;8.648;2023-06-24T05:06:41;101518.06;;;15.72;85.80
72262;BME280;60173;52.112;8.648;2023-06-24T05:09:08;101507.19;;;15.80;85.29
72262;BME280;60173;52.112;8.648;2023-06-24T05:11:34;101509.34;;;15.70;84.80
72262;BME280;60173;52.112;8.648;2023-06-24T05:14:01;101498.47;;;15.78;84.95
72262;BME280;60173;52.112;8.648;2023-06-24T05:16:27;101510.19;;;15.93;84.61
72262;BME280;60173;52.112;8.648;2023-06-24T05:18:54;101507.47;;;15.93;84.10
72262;BME280;60173;52.112;8.648;2023-06-24T05:21:20;101502.88;;;16.02;84.17
72262;BME280;60173;52.112;8.648;2023-06-24T05:23:46;101502.06;;;16.01;84.09
72262;BME280;60173;52.112;8.648;2023-06-24T05:26:13;101501.16;;;16.06;83.56
72262;BME280;60173;52.112;8.648;2023-06-24T05:28:40;101492.19;;;16.14;82.92
72262;BME280;60173;52.112;8.648;2023-06-24T05:31:06;101501.00;;;16.11;82.71
72262;BME280;60173;52.112;8.648;2023-06-24T05:33:33;101498.09;;;16.30;81.93
72262;BME280;60173;52.112;8.648;2023-06-24T05:35:59;101500.59;;;16.40;81.25
72262;BME280;60173;52.112;8.648;2023-06-24T05:38:25;101502.63;;;16.57;80.25
72262;BME280;60173;52.112;8.648;2023-06-24T05:40:52;101503.00;;;16.64;79.87
72262;BME280;60173;52.112;8.648;2023-06-24T05:43:18;101497.25;;;16.75;80.06
72262;BME280;60173;52.112;8.648;2023-06-24T05:45:44;101500.28;;;16.87;80.74
72262;BME280;60173;52.112;8.648;2023-06-24T05:48:11;101501.44;;;17.03;80.77
72262;BME280;60173;52.112;8.648;2023-06-24T05:50:37;101509.78;;;17.29;80.42
72262;BME280;60173;52.112;8.648;2023-06-24T05:53:03;101503.34;;;17.34;80.06
72262;BME280;60173;52.112;8.648;2023-06-24T05:55:30;101506.84;;;17.66;79.61
72262;BME280;60173;52.112;8.648;2023-06-24T05:57:56;101515.00;;;17.97;77.31
72262;BME280;60173;52.112;8.648;2023-06-24T06:00:22;101506.75;;;17.88;76.63
72262;BME280;60173;52.112;8.648;2023-06-24T06:02:49;101508.66;;;17.88;76.34
72262;BME280;60173;52.112;8.648;2023-06-24T06:05:16;101514.16;;;17.88;76.02
72262;BME280;60173;52.112;8.648;2023-06-24T06:07:42;101509.25;;;17.76;76.72
72262;BME280;60173;52.112;8.648;2023-06-24T06:10:09;101503.16;;;17.96;77.23
72262;BME280;60173;52.112;8.648;2023-06-24T06:12:35;101500.75;;;18.12;75.92
72262;BME280;60173;52.112;8.648;2023-06-24T06:15:02;101494.31;;;18.08;75.80
72262;BME280;60173;52.112;8.648;2023-06-24T06:17:28;101501.06;;;18.28;75.61
72262;BME280;60173;52.112;8.648;2023-06-24T06:19:54;101501.88;;;18.37;74.08
72262;BME280;60173;52.112;8.648;2023-06-24T06:22:21;101507.81;;;18.57;74.26
72262;BME280;60173;52.112;8.648;2023-06-24T06:24:47;101508.94;;;18.73;73.71
72262;BME280;60173;52.112;8.648;2023-06-24T06:27:14;101505.66;;;18.88;72.40
72262;BME280;60173;52.112;8.648;2023-06-24T06:29:40;101511.34;;;18.92;73.09
72262;BME280;60173;52.112;8.648;2023-06-24T06:32:07;101513.38;;;19.12;71.52
72262;BME280;60173;52.112;8.648;2023-06-24T06:34:33;101513.78;;;19.23;71.81
72262;BME280;60173;52.112;8.648;2023-06-24T06:37:00;101516.25;;;19.16;71.54
72262;BME280;60173;52.112;8.648;2023-06-24T06:39:26;101509.34;;;19.39;70.57
72262;BME280;60173;52.112;8.648;2023-06-24T06:41:52;101510.66;;;19.63;70.48
72262;BME280;60173;52.112;8.648;2023-06-24T06:44:19;101504.94;;;19.77;69.98
72262;BME280;60173;52.112;8.648;2023-06-24T06:46:45;101511.59;;;19.97;70.21
72262;BME280;60173;52.112;8.648;2023-06-24T06:49:12;101506.53;;;19.99;69.67
72262;BME280;60173;52.112;8.648;2023-06-24T06:51:38;101510.44;;;19.98;70.08
72262;BME280;60173;52.112;8.648;2023-06-24T06:54:04;101509.81;;;20.13;69.74
72262;BME280;60173;52.112;8.648;2023-06-24T06:56:31;101512.91;;;20.32;67.41
72262;BME280;60173;52.112;8.648;2023-06-24T06:58:57;101515.25;;;20.43;67.52
72262;BME280;60173;52.112;8.648;2023-06-24T07:01:23;101513.19;;;20.40;67.50
72262;BME280;60173;52.112;8.648;2023-06-24T07:03:50;101501.63;;;20.25;67.50
72262;BME280;60173;52.112;8.648;2023-06-24T07:06:20;101512.50;;;20.43;68.08
72262;BME280;60173;52.112;8.648;2023-06-24T07:08:46;101505.22;;;20.59;67.65
72262;BME280;60173;52.112;8.648;2023-06-24T07:11:12;101493.97;;;20.76;67.18
72262;BME280;60173;52.112;8.648;2023-06-24T07:13:39;101495.84;;;20.85;66.58
72262;BME280;60173;52.112;8.648;2023-06-24T07:16:05;101498.50;;;20.93;66.82
72262;BME280;60173;52.112;8.648;2023-06-24T07:18:32;101503.44;;;20.88;66.02
72262;BME280;60173;52.112;8.648;2023-06-24T07:21:00;101502.09;;;21.06;67.03
72262;BME280;60173;52.112;8.648;2023-06-24T07:23:26;101500.56;;;21.09;67.05
72262;BME280;60173;52.112;8.648;2023-06-24T07:25:52;101504.53;;;21.32;65.37
72262;BME280;60173;52.112;8.648;2023-06-24T07:28:19;101505.91;;;21.51;65.03
72262;BME280;60173;52.112;8.648;2023-06-24T07:30:45;101499.56;;;21.62;65.04
72262;BME280;60173;52.112;8.648;2023-06-24T07:33:12;101499.34;;;21.67;64.21
72262;BME280;60173;52.112;8.648;2023-06-24T07:35:38;101512.00;;;21.69;64.15
72262;BME280;60173;52.112;8.648;2023-06-24T07:38:04;101520.72;;;21.83;63.96
72262;BME280;60173;52.112;8.648;2023-06-24T07:40:31;101513.72;;;21.61;63.56
72262;BME280;60173;52.112;8.648;2023-06-24T07:42:57;101515.00;;;21.63;65.79
72262;BME280;60173;52.112;8.648;2023-06-24T07:45:24;101515.44;;;21.78;65.43
72262;BME280;60173;52.112;8.648;2023-06-24T07:47:50;101516.09;;;21.99;63.82
72262;BME280;60173;52.112;8.648;2023-06-24T07:50:16;101510.47;;;22.24;64.62
72262;BME280;60173;52.112;8.648;2023-06-24T07:52:43;101513.56;;;22.34;62.90
72262;BME280;60173;52.112;8.648;2023-06-24T07:55:09;101512.28;;;22.32;61.78
72262;BME280;60173;52.112;8.648;2023-06-24T07:57:35;101515.00;;;22.44;61.38
72262;BME280;60173;52.112;8.648;2023-06-24T08:00:03;101507.72;;;22.52;61.01
72262;BME280;60173;52.112;8.648;2023-06-24T08:02:29;101512.84;;;22.82;61.83
72262;BME280;60173;52.112;8.648;2023-06-24T08:04:55;101510.34;;;22.92;60.79
72262;BME280;60173;52.112;8.648;2023-06-24T08:07:22;101518.44;;;22.97;60.69
72262;BME280;60173;52.112;8.648;2023-06-24T08:09:49;101510.47;;;23.12;60.23
72262;BME280;60173;52.112;8.648;2023-06-24T08:12:15;101514.69;;;23.06;57.13
72262;BME280;60173;52.112;8.648;2023-06-24T08:14:41;101513.41;;;23.19;56.81
72262;BME280;60173;52.112;8.648;2023-06-24T08:17:08;101517.19;;;22.95;59.62
72262;BME280;60173;52.112;8.648;2023-06-24T08:19:34;101514.69;;;23.06;58.81
72262;BME280;60173;52.112;8.648;2023-06-24T08:22:01;101501.59;;;23.22;60.32
72262;BME280;60173;52.112;8.648;2023-06-24T08:24:27;101503.06;;;23.32;58.42
72262;BME280;60173;52.112;8.648;2023-06-24T08:26:53;101499.03;;;23.29;58.90
72262;BME280;60173;52.112;8.648;2023-06-24T08:29:20;101505.19;;;23.22;58.45
72262;BME280;60173;52.112;8.648;2023-06-24T08:31:46;101496.59;;;23.28;58.39
72262;BME280;60173;52.112;8.648;2023-06-24T08:34:12;101497.41;;;23.28;59.30
72262;BME280;60173;52.112;8.648;2023-06-24T08:36:39;101496.13;;;23.41;57.16
72262;BME280;60173;52.112;8.648;2023-06-24T08:39:05;101495.47;;;23.64;58.74
72262;BME280;60173;52.112;8.648;2023-06-24T08:41:32;101495.16;;;23.69;56.30
72262;BME280;60173;52.112;8.648;2023-06-24T08:43:58;101488.28;;;23.28;57.61
72262;BME280;60173;52.112;8.648;2023-06-24T08:46:25;101493.84;;;23.79;58.85
72262;BME280;60173;52.112;8.648;2023-06-24T08:49:02;101485.44;;;23.95;56.64
72262;BME280;60173;52.112;8.648;2023-06-24T08:51:37;101483.47;;;24.14;57.08
72262;BME280;60173;52.112;8.648;2023-06-24T08:54:07;101483.41;;;24.30;56.74
72262;BME280;60173;52.112;8.648;2023-06-24T08:56:36;101486.84;;;24.43;55.95
72262;BME280;60173;52.112;8.648;2023-06-24T08:59:03;101487.19;;;24.42;56.39
72262;BME280;60173;52.112;8.648;2023-06-24T09:01:29;101484.41;;;24.42;55.90
72262;BME280;60173;52.112;8.648;2023-06-24T09:03:56;101471.19;;;24.54;56.67
72262;BME280;60173;52.112;8.648;2023-06-24T09:06:22;101474.94;;;24.66;55.64
72262;BME280;60173;52.112;8.648;2023-06-24T09:08:55;101471.19;;;24.77;58.08
72262;BME280;60173;52.112;8.648;2023-06-24T09:11:25;101467.22;;;24.78;55.64
72262;BME280;60173;52.112;8.648;2023-06-24T09:13:58;101472.63;;;24.68;54.29
72262;BME280;60173;52.112;8.648;2023-06-24T09:16:26;101474.22;;;24.69;54.28
72262;BME280;60173;52.112;8.648;2023-06-24T09:18:53;101473.31;;;24.88;52.67
72262;BME280;60173;52.112;8.648;2023-06-24T09:21:27;101472.28;;;24.50;55.16
72262;BME280;60173;52.112;8.648;2023-06-24T09:23:54;101465.69;;;24.81;53.64
72262;BME280;60173;52.112;8.648;2023-06-24T09:26:24;101463.53;;;24.94;53.11
72262;BME280;60173;52.112;8.648;2023-06-24T09:28:51;101462.72;;;24.93;53.38
72262;BME280;60173;52.112;8.648;2023-06-24T09:31:18;101463.91;;;25.15;54.03
72262;BME280;60173;52.112;8.648;2023-06-24T09:33:46;101457.97;;;25.43;54.39
72262;BME280;60173;52.112;8.648;2023-06-24T09:36:14;101468.47;;;25.31;53.13
72262;BME280;60173;52.112;8.648;2023-06-24T09:38:42;101463.19;;;25.22;51.60
72262;BME280;60173;52.112;8.648;2023-06-24T09:41:08;101455.41;;;24.39;52.42
72262;BME280;60173;52.112;8.648;2023-06-24T09:43:41;101453.97;;;24.68;51.02
72262;BME280;60173;52.112;8.648;2023-06-24T09:46:08;101455.13;;;23.66;52.57
72262;BME280;60173;52.112;8.648;2023-06-24T09:48:35;101452.41;;;24.28;51.31
72262;BME280;60173;52.112;8.648;2023-06-24T09:51:03;101456.38;;;24.27;52.76
72262;BME280;60173;52.112;8.648;2023-06-24T09:53:34;101456.56;;;24.57;53.72
72262;BME280;60173;52.112;8.648;2023-06-24T09:56:03;101454.56;;;25.04;54.37
72262;BME280;60173;52.112;8.648;2023-06-24T09:58:31;101450.97;;;25.27;51.85
72262;BME280;60173;52.112;8.648;2023-06-24T10:01:03;101447.63;;;25.44;51.96
72262;BME280;60173;52.112;8.648;2023-06-24T10:03:32;101447.50;;;25.63;51.83
72262;BME280;60173;52.112;8.648;2023-06-24T10:06:02;101442.53;;;25.80;51.20
72262;BME280;60173;52.112;8.648;2023-06-24T10:08:30;101436.31;;;25.86;48.99
72262;BME280;60173;52.112;8.648;2023-06-24T10:10:56;101433.78;;;25.78;50.45
72262;BME280;60173;52.112;8.648;2023-06-24T10:13:23;101430.00;;;25.93;51.60
72262;BME280;60173;52.112;8.648;2023-06-24T10:15:49;101426.81;;;25.91;51.04
72262;BME280;60173;52.112;8.648;2023-06-24T10:20:56;101422.88;;;25.96;50.52
72262;BME280;60173;52.112;8.648;2023-06-24T10:23:22;101428.78;;;26.24;52.00
72262;BME280;60173;52.112;8.648;2023-06-24T10:25:49;101427.56;;;26.63;49.89
72262;BME280;60173;52.112;8.648;2023-06-24T10:28:15;101412.13;;;26.31;47.73
72262;BME280;60173;52.112;8.648;2023-06-24T10:30:54;101415.31;;;26.30;48.92
72262;BME280;60173;52.112;8.648;2023-06-24T10:33:21;101410.13;;;26.32;49.79
72262;BME280;60173;52.112;8.648;2023-06-24T10:35:47;101411.00;;;26.84;51.51
72262;BME280;60173;52.112;8.648;2023-06-24T10:38:13;101409.19;;;27.10;49.60
72262;BME280;60173;52.112;8.648;2023-06-24T10:40:42;101404.41;;;27.07;49.79
72262;BME280;60173;52.112;8.648;2023-06-24T10:45:57;101403.63;;;26.54;49.66
72262;BME280;60173;52.112;8.648;2023-06-24T10:48:25;101395.19;;;26.47;50.77
72262;BME280;60173;52.112;8.648;2023-06-24T10:50:51;101399.63;;;26.14;51.31
72262;BME280;60173;52.112;8.648;2023-06-24T10:53:18;101395.25;;;26.13;51.64
72262;BME280;60173;52.112;8.648;2023-06-24T10:55:45;101396.91;;;26.18;51.35
72262;BME280;60173;52.112;8.648;2023-06-24T10:58:13;101390.00;;;26.49;50.31
72262;BME280;60173;52.112;8.648;2023-06-24T11:00:40;101383.50;;;26.34;47.74
72262;BME280;60173;52.112;8.648;2023-06-24T11:03:11;101381.09;;;25.58;51.92
72262;BME280;60173;52.112;8.648;2023-06-24T11:05:42;101377.69;;;26.09;50.11
72262;BME280;60173;52.112;8.648;2023-06-24T11:08:09;101379.31;;;25.43;50.54
72262;BME280;60173;52.112;8.648;2023-06-24T11:10:44;101375.81;;;25.50;54.00
72262;BME280;60173;52.112;8.648;2023-06-24T11:13:10;101374.13;;;25.75;51.10
72262;BME280;60173;52.112;8.648;2023-06-24T11:15:38;101373.28;;;25.71;50.20
72262;BME280;60173;52.112;8.648;2023-06-24T11:18:04;101373.31;;;26.08;50.04
72262;BME280;60173;52.112;8.648;2023-06-24T11:20:31;101372.06;;;26.43;50.71
72262;BME280;60173;52.112;8.648;2023-06-24T11:22:57;101365.63;;;26.80;51.05
72262;BME280;60173;52.112;8.648;2023-06-24T11:25:24;101362.25;;;26.56;49.57
72262;BME280;60173;52.112;8.648;2023-06-24T11:27:50;101356.56;;;26.46;50.94
72262;BME280;60173;52.112;8.648;2023-06-24T11:30:17;101359.13;;;26.62;46.42
72262;BME280;60173;52.112;8.648;2023-06-24T11:32:44;101359.69;;;26.89;47.70
72262;BME280;60173;52.112;8.648;2023-06-24T11:35:12;101363.53;;;26.70;48.83
72262;BME280;60173;52.112;8.648;2023-06-24T11:37:44;101362.03;;;26.79;48.17
72262;BME280;60173;52.112;8.648;2023-06-24T11:40:12;101357.00;;;27.03;48.84
72262;BME280;60173;52.112;8.648;2023-06-24T11:42:41;101350.03;;;27.38;49.40
72262;BME280;60173;52.112;8.648;2023-06-24T11:45:09;101354.00;;;27.33;49.08
72262;BME280;60173;52.112;8.648;2023-06-24T11:47:40;101351.03;;;27.04;48.63
72262;BME280;60173;52.112;8.648;2023-06-24T11:50:07;101354.03;;;27.40;46.92
72262;BME280;60173;52.112;8.648;2023-06-24T11:52:47;101355.72;;;27.70;47.84
72262;BME280;60173;52.112;8.648;2023-06-24T11:55:19;101335.09;;;28.00;46.79
72262;BME280;60173;52.112;8.648;2023-06-24T11:57:59;101339.72;;;27.53;46.53
72262;BME280;60173;52.112;8.648;2023-06-24T12:00:38;101348.63;;;27.03;47.32
72262;BME280;60173;52.112;8.648;2023-06-24T12:03:06;101345.66;;;26.71;49.33
72262;BME280;60173;52.112;8.648;2023-06-24T12:05:38;101342.19;;;26.40;50.05
72262;BME280;60173;52.112;8.648;2023-06-24T12:08:10;101341.91;;;26.52;50.72
72262;BME280;60173;52.112;8.648;2023-06-24T12:10:37;101332.25;;;26.94;50.41
72262;BME280;60173;52.112;8.648;2023-06-24T12:13:05;101333.66;;;27.29;50.54
72262;BME280;60173;52.112;8.648;2023-06-24T12:15:32;101336.50;;;27.43;48.62
72262;BME280;60173;52.112;8.648;2023-06-24T12:17:58;101323.91;;;27.85;43.77
72262;BME280;60173;52.112;8.648;2023-06-24T12:20:25;101335.13;;;28.07;45.04
72262;BME280;60173;52.112;8.648;2023-06-24T12:22:56;101321.09;;;27.85;45.34
72262;BME280;60173;52.112;8.648;2023-06-24T12:25:22;101325.47;;;27.79;46.61
72262;BME280;60173;52.112;8.648;2023-06-24T12:27:49;101323.13;;;28.03;44.76
72262;BME280;60173;52.112;8.648;2023-06-24T12:30:16;101322.72;;;28.11;47.35
72262;BME280;60173;52.112;8.648;2023-06-24T12:32:43;101327.13;;;28.02;45.91
72262;BME280;60173;52.112;8.648;2023-06-24T12:35:09;101321.94;;;28.39;43.95
72262;BME280;60173;52.112;8.648;2023-06-24T12:37:36;101320.72;;;28.83;45.23
72262;BME280;60173;52.112;8.648;2023-06-24T12:40:04;101311.88;;;28.96;43.63
72262;BME280;60173;52.112;8.648;2023-06-24T12:42:30;101315.03;;;29.26;46.30
72262;BME280;60173;52.112;8.648;2023-06-24T12:44:57;101316.47;;;29.56;42.28
72262;BME280;60173;52.112;8.648;2023-06-24T12:47:23;101316.19;;;29.33;43.66
72262;BME280;60173;52.112;8.648;2023-06-24T12:49:49;101309.41;;;29.34;42.18
72262;BME280;60173;52.112;8.648;2023-06-24T12:52:16;101307.91;;;29.04;41.65
72262;BME280;60173;52.112;8.648;2023-06-24T12:54:42;101308.75;;;28.72;42.92
72262;BME280;60173;52.112;8.648;2023-06-24T12:57:09;101315.06;;;27.69;44.09
72262;BME280;60173;52.112;8.648;2023-06-24T12:59:40;101321.44;;;27.73;45.53